createdAt,value
2022-08-23T00:00:30.329Z,6.5
2022-08-23T00:05:34.901Z,6.4
2022-08-23T00:10:39.431Z,6.5
2022-08-23T00:15:42.951Z,6.3
2022-08-23T00:20:47.501Z,6.1
2022-08-23T00:25:52.062Z,6
2022-08-23T00:30:55.570Z,5.8
2022-08-23T00:36:00.131Z,5.7
2022-08-23T00:41:04.651Z,5.6
2022-08-23T00:46:08.212Z,5.6
2022-08-23T00:51:12.739Z,5.8
2022-08-23T00:56:17.284Z,5.9
2022-08-23T01:01:21.851Z,5.9
2022-08-23T01:06:25.375Z,5.7
2022-08-23T01:11:29.908Z,5.6
2022-08-23T01:16:34.412Z,5.5
2022-08-23T01:21:38.001Z,5.5
2022-08-23T01:26:42.561Z,5.3
2022-08-23T01:31:47.070Z,5.3
2022-08-23T01:36:50.583Z,5.3
2022-08-23T01:41:55.155Z,5.2
2022-08-23T01:46:59.669Z,5.2
2022-08-23T01:52:03.231Z,5.3
2022-08-23T01:57:07.748Z,5.4
2022-08-23T02:02:12.289Z,5.6
2022-08-23T02:07:16.792Z,5.7
2022-08-23T02:12:20.354Z,6
2022-08-23T02:17:24.945Z,6.1
2022-08-23T02:22:29.457Z,6
2022-08-23T02:27:32.978Z,5.9
2022-08-23T02:32:37.556Z,5.8
2022-08-23T02:37:42.102Z,5.8
2022-08-23T02:42:45.635Z,5.8
2022-08-23T02:47:50.211Z,5.8
2022-08-23T02:52:53.707Z,5.9
2022-08-23T02:57:58.394Z,6.1
2022-08-23T03:03:02.790Z,6.3
2022-08-23T03:08:06.347Z,6.4
2022-08-23T03:13:10.884Z,6.5
2022-08-23T03:18:15.434Z,6.4
2022-08-23T03:23:18.976Z,6.2
2022-08-23T03:28:23.510Z,6.3
2022-08-23T03:33:27.989Z,6.3
2022-08-23T03:38:31.557Z,6.3
2022-08-23T03:43:36.124Z,6.3
2022-08-23T03:48:40.613Z,6.3
2022-08-23T03:53:45.178Z,6.2
2022-08-23T03:58:48.691Z,6.2
2022-08-23T04:03:53.236Z,6.1
2022-08-23T04:08:57.787Z,6.1
2022-08-23T04:14:01.306Z,6
2022-08-23T04:19:05.866Z,5.9
2022-08-23T04:24:10.382Z,5.8
2022-08-23T04:29:13.945Z,5.7
2022-08-23T04:34:20.232Z,5.6
2022-08-23T04:39:22.982Z,5.7
2022-08-23T04:44:26.576Z,5.7
2022-08-23T04:49:31.079Z,5.6
2022-08-23T04:54:35.629Z,5.6
2022-08-23T04:59:40.149Z,5.8
2022-08-23T05:04:43.736Z,5.9
2022-08-23T05:09:48.233Z,6.1
2022-08-23T05:14:52.751Z,6.2
2022-08-23T05:19:56.308Z,6.2
2022-08-23T05:25:00.855Z,5.9
2022-08-23T05:30:05.403Z,5.9
2022-08-23T05:35:08.939Z,6
2022-08-23T05:40:13.554Z,5.8
2022-08-23T05:45:21.163Z,6
2022-08-23T05:50:21.549Z,6.1
2022-08-23T05:55:34.824Z,6.2
2022-08-23T06:00:38.053Z,6.3
2022-08-23T06:05:35.169Z,6.4
2022-08-23T06:10:42.124Z,6.5
2022-08-23T06:15:43.258Z,6.8
2022-08-23T06:20:47.846Z,7
2022-08-23T06:25:51.336Z,7
2022-08-23T06:30:55.978Z,7.3
2022-08-23T06:36:00.384Z,7.4
2022-08-23T06:41:03.994Z,7.6
2022-08-23T06:46:08.527Z,7.7
2022-08-23T06:51:13.024Z,7.7
2022-08-23T06:56:16.540Z,7.7
2022-08-23T07:01:44.134Z,7.7
2022-08-23T07:06:24.684Z,7.8
2022-08-23T07:11:29.219Z,8
2022-08-23T07:16:33.777Z,8.1
2022-08-23T07:21:37.282Z,8.2
2022-08-23T07:26:41.811Z,8.3
2022-08-23T07:31:46.414Z,8.5
2022-08-23T07:36:49.910Z,8.9
2022-08-23T07:41:54.464Z,9
2022-08-23T07:47:00.662Z,8.9
2022-08-23T07:52:03.503Z,9.4
2022-08-23T07:57:07.069Z,9.3
2022-08-23T08:02:11.692Z,9.2
2022-08-23T08:07:21.111Z,9.7
2022-08-23T08:12:19.687Z,9.2
2022-08-23T08:17:27.399Z,10
2022-08-23T08:22:28.768Z,10.6
2022-08-23T08:27:32.311Z,10.6
2022-08-23T08:32:36.882Z,10.8
2022-08-23T08:37:41.376Z,10.9
2022-08-23T08:42:44.931Z,11.1
2022-08-23T08:47:49.468Z,11.1
2022-08-23T08:52:54.025Z,11.6
2022-08-23T08:57:58.628Z,11.6
2022-08-23T09:03:02.152Z,11.4
2022-08-23T09:08:06.646Z,12.1
2022-08-23T09:13:11.454Z,12
2022-08-23T09:18:14.738Z,11.8
2022-08-23T09:23:19.270Z,12.1
2022-08-23T09:28:23.810Z,12.2
2022-08-23T09:33:27.336Z,12.3
2022-08-23T09:38:31.906Z,12.1
2022-08-23T09:43:36.424Z,12.9
2022-08-23T09:48:40.000Z,14.1
2022-08-23T09:53:44.538Z,14.3
2022-08-23T09:58:49.083Z,13.7
2022-08-23T10:03:53.592Z,12.8
2022-08-23T10:08:57.156Z,12.7
2022-08-23T10:14:01.687Z,12.9
2022-08-23T10:19:06.275Z,13.5
2022-08-23T10:24:09.840Z,13
2022-08-23T10:29:14.370Z,13.6
2022-08-23T10:34:18.909Z,14.4
2022-08-23T10:39:22.432Z,14.6
2022-08-23T10:44:26.988Z,12.7
2022-08-23T10:49:31.514Z,14
2022-08-23T10:54:35.127Z,13.7
2022-08-23T10:59:39.600Z,14.5
2022-08-23T11:04:44.146Z,14.1
2022-08-23T11:09:48.830Z,14.7
2022-08-23T11:14:52.233Z,14.8
2022-08-23T11:19:55.839Z,14.1
2022-08-23T11:25:00.357Z,13.7
2022-08-23T11:30:04.915Z,15
2022-08-23T11:35:08.457Z,14.1
2022-08-23T11:40:17.990Z,15.8
2022-08-23T11:45:17.550Z,16.5
2022-08-23T11:50:22.064Z,16.1
2022-08-23T11:55:25.628Z,16.5
2022-08-23T12:00:30.168Z,16.1
2022-08-23T12:05:34.696Z,16.3
2022-08-23T12:10:38.284Z,14.4
2022-08-23T12:15:42.864Z,14.7
2022-08-23T12:20:48.565Z,14.8
2022-08-23T12:25:50.913Z,14.5
2022-08-23T12:30:55.537Z,15.4
2022-08-23T12:36:00.014Z,16
2022-08-23T12:41:03.568Z,14.4
2022-08-23T12:46:08.115Z,14.4
2022-08-23T12:51:12.620Z,14.5
2022-08-23T12:56:17.181Z,15.3
2022-08-23T13:01:20.819Z,14.9
2022-08-23T13:06:25.278Z,14.3
2022-08-23T13:11:29.797Z,15.2
2022-08-23T13:16:33.336Z,15.5
2022-08-23T13:21:39.914Z,14.7
2022-08-23T13:26:42.442Z,14.3
2022-08-23T13:31:46.016Z,14.5
2022-08-23T13:36:50.525Z,14.5
2022-08-23T13:41:55.050Z,14.6
2022-08-23T13:46:58.593Z,14.8
2022-08-23T13:52:33.379Z,15.2
2022-08-23T13:57:07.712Z,15.7
2022-08-23T14:02:12.230Z,15.6
2022-08-23T14:07:15.759Z,15.7
2022-08-23T14:12:21.279Z,15.4
2022-08-23T14:17:24.924Z,14.7
2022-08-23T14:22:28.395Z,14.9
2022-08-23T14:27:32.989Z,14.8
2022-08-23T14:32:37.483Z,14.8
2022-08-23T14:42:45.553Z,15
2022-08-23T14:47:50.120Z,15
2022-08-23T14:52:53.654Z,14.6
2022-08-23T14:57:58.164Z,14
2022-08-23T15:03:07.519Z,14
2022-08-23T15:08:07.240Z,14.3
2022-08-23T15:13:20.973Z,14.7
2022-08-23T15:18:15.353Z,15.6
2022-08-23T15:23:19.891Z,15.6
2022-08-23T15:28:23.413Z,15.8
2022-08-23T15:33:31.394Z,15.1
2022-08-23T15:38:31.547Z,15.4
2022-08-23T15:43:36.045Z,15.3
2022-08-23T15:48:40.594Z,15.3
2022-08-23T15:53:44.178Z,14.2
2022-08-23T15:58:48.689Z,14
2022-08-23T16:03:53.235Z,14.6
2022-08-23T16:08:56.759Z,14.4
2022-08-23T16:14:01.308Z,13.8
2022-08-23T16:19:05.891Z,14.8
2022-08-23T16:24:09.388Z,15
2022-08-23T16:29:13.925Z,14.3
2022-08-23T16:34:18.496Z,14.6
2022-08-23T16:39:22.022Z,14.4
2022-08-23T16:44:26.600Z,14
2022-08-23T16:49:31.140Z,13.7
2022-08-23T16:54:35.669Z,13.7
2022-08-23T16:59:40.663Z,13.9
2022-08-23T17:04:43.721Z,14.3
2022-08-23T17:09:48.295Z,13.6
2022-08-23T17:14:51.809Z,13.3
2022-08-23T17:19:56.374Z,13.1
2022-08-23T17:25:00.942Z,13
2022-08-23T17:30:04.458Z,12.8
2022-08-23T17:35:12.778Z,12.5
2022-08-23T17:40:13.573Z,12.4
2022-08-23T17:45:17.057Z,11.9
2022-08-23T17:50:21.633Z,11.8
2022-08-23T17:55:26.188Z,11.5
2022-08-23T18:00:30.664Z,11.1
2022-08-23T18:05:34.264Z,10.8
2022-08-23T18:10:38.774Z,10.7
2022-08-23T18:15:43.286Z,10.6
2022-08-23T18:20:46.825Z,10.2
2022-08-23T18:25:51.364Z,10.1
2022-08-23T18:30:55.914Z,9.7
2022-08-23T18:35:59.459Z,9.6
2022-08-23T18:41:04.018Z,9.3
2022-08-23T18:46:08.599Z,9.1
2022-08-23T18:51:17.951Z,8.9
2022-08-23T18:56:16.609Z,8.8
2022-08-23T19:01:21.232Z,8.7
2022-08-23T19:06:25.686Z,8.5
2022-08-23T19:11:29.235Z,8.3
2022-08-23T19:16:33.855Z,8.2
2022-08-23T19:21:38.283Z,8.2
2022-08-23T19:26:41.823Z,8.1
2022-08-23T19:31:46.447Z,8.1
2022-08-23T19:36:59.108Z,8.1
2022-08-23T19:41:54.468Z,8
2022-08-23T19:46:58.972Z,8
2022-08-23T19:52:02.531Z,8
2022-08-23T19:57:07.059Z,7.9
2022-08-23T20:02:11.623Z,7.8
2022-08-23T20:07:15.162Z,7.8
2022-08-23T20:12:19.693Z,7.6
2022-08-23T20:17:24.253Z,7.6
2022-08-23T20:22:27.788Z,7.6
2022-08-23T20:27:32.326Z,7.5
2022-08-23T20:32:36.836Z,7.5
2022-08-23T20:37:40.403Z,7.5
2022-08-23T20:42:44.923Z,7.4
2022-08-23T20:47:49.473Z,7.4
2022-08-23T20:52:53.985Z,7.4
2022-08-23T20:57:57.562Z,7.4
2022-08-23T21:03:02.232Z,7.2
2022-08-23T21:08:06.635Z,7.1
2022-08-23T21:13:10.640Z,7.2
2022-08-23T21:18:14.720Z,7.2
2022-08-23T21:23:19.255Z,7.2
2022-08-23T21:28:22.817Z,7.2
2022-08-23T21:33:27.307Z,7.2
2022-08-23T21:38:31.830Z,7.1
2022-08-23T21:43:35.450Z,7
2022-08-23T21:48:39.931Z,7.1
2022-08-23T21:53:44.448Z,7.2
2022-08-23T21:58:50.692Z,7.2
2022-08-23T22:03:56.795Z,7.1
2022-08-23T22:08:57.094Z,7.1
2022-08-23T22:14:01.594Z,7.2
2022-08-23T22:19:05.185Z,7.1
2022-08-23T22:24:09.706Z,7.2
2022-08-23T22:29:14.234Z,7.1
2022-08-23T22:34:17.817Z,7
2022-08-23T22:39:22.306Z,6.9
2022-08-23T22:44:26.826Z,6.7
2022-08-23T22:49:30.889Z,6.6
2022-08-23T22:54:34.961Z,6.7
2022-08-23T22:59:39.507Z,6.5
2022-08-23T23:04:43.998Z,6.4
2022-08-23T23:09:47.562Z,6.3
2022-08-23T23:14:52.082Z,6.2
2022-08-23T23:22:28.896Z,6.1
2022-08-23T23:27:32.471Z,5.8
2022-08-23T23:32:36.943Z,5.1
2022-08-23T23:37:41.479Z,5.3
2022-08-23T23:42:45.069Z,5.1
2022-08-23T23:47:49.606Z,5.1
2022-08-23T23:52:54.128Z,5.2
2022-08-23T23:57:57.694Z,5.2
